Time;durP1;ratioP1;P1;durP2;ratioP2;P2;SDS_P1;SDS_P2;PMS_P1;PMS_P2;Temp;Humidity;BMP_temperature;BMP_pressure;BME280_temperature;BME280_humidity;BME280_pressure;Samples;Min_cycle;Max_cycle;Signal;HPM_P1;HPM_P2
2022/06/12 00:00:44;;;;;;;0.70;0.10;;;22.80;99.90;;;;;;5063646;28;20446;-69
2022/06/12 00:03:15;;;;;;;0.70;0.10;;;22.80;99.90;;;;;;5055171;28;20450;-69
2022/06/12 00:05:46;;;;;;;0.70;0.20;;;22.70;99.90;;;;;;5057753;28;20876;-72
2022/06/12 00:08:16;;;;;;;0.70;0.20;;;22.70;99.90;;;;;;5077145;28;20449;-72
2022/06/12 00:10:49;;;;;;;0.70;0.20;;;22.60;99.90;;;;;;5056582;28;20494;-74
2022/06/12 00:13:22;;;;;;;0.70;0.10;;;22.60;99.90;;;;;;5056112;28;20533;-73
2022/06/12 00:15:51;;;;;;;0.70;0.10;;;22.40;99.90;;;;;;5055544;28;20472;-73
2022/06/12 00:18:19;;;;;;;0.70;0.20;;;22.30;99.90;;;;;;5052777;28;20520;-72
2022/06/12 00:20:48;;;;;;;0.70;0.20;;;22.20;99.90;;;;;;5053185;28;20438;-71
2022/06/12 00:23:18;;;;;;;0.70;0.10;;;22.20;99.90;;;;;;5052782;28;20489;-71
2022/06/12 00:25:45;;;;;;;0.70;0.20;;;22.20;99.90;;;;;;5062641;28;20971;-72
2022/06/12 00:28:13;;;;;;;0.70;0.10;;;22.10;99.90;;;;;;5067716;28;20449;-71
2022/06/12 00:30:43;;;;;;;0.70;0.10;;;22.20;99.90;;;;;;5071445;28;20491;-72
2022/06/12 00:33:12;;;;;;;0.70;0.10;;;22.10;99.90;;;;;;5072418;28;20445;-73
2022/06/12 00:35:40;;;;;;;0.70;0.10;;;22.10;99.90;;;;;;5068068;28;20477;-74
2022/06/12 00:38:08;;;;;;;0.70;0.13;;;22.10;99.90;;;;;;5072254;28;20438;-72
2022/06/12 00:40:36;;;;;;;0.70;0.20;;;22.00;99.90;;;;;;5073354;28;20947;-73
2022/06/12 00:43:05;;;;;;;0.70;0.10;;;22.00;99.90;;;;;;5063425;28;20460;-73
2022/06/12 00:45:41;;;;;;;0.70;0.10;;;22.00;99.90;;;;;;5066354;28;20484;-73
2022/06/12 00:48:14;;;;;;;0.70;0.20;;;22.00;99.90;;;;;;5057402;28;20452;-73
2022/06/12 00:50:46;;;;;;;0.70;0.10;;;22.00;99.90;;;;;;5071934;28;20476;-73
2022/06/12 00:53:19;;;;;;;0.70;0.10;;;21.90;99.90;;;;;;5078743;28;20447;-71
2022/06/12 00:55:57;;;;;;;0.70;0.10;;;21.80;99.90;;;;;;5082647;23;20486;-71
2022/06/12 00:58:29;;;;;;;0.70;0.10;;;21.80;99.90;;;;;;5046179;28;20510;-71
2022/06/12 01:00:57;;;;;;;0.70;0.10;;;21.90;99.90;;;;;;5044194;28;20492;-71
2022/06/12 01:03:26;;;;;;;1.73;1.63;;;21.80;99.90;;;;;;5042963;28;20501;-70
2022/06/12 01:08:41;;;;;;;0.70;0.20;;;21.70;99.90;;;;;;5059602;28;20537;-66
2022/06/12 01:11:14;;;;;;;0.70;0.20;;;21.80;99.90;;;;;;5051843;28;20478;-67
2022/06/12 01:13:46;;;;;;;0.70;0.20;;;21.70;99.90;;;;;;5069382;28;20568;-72
2022/06/12 01:16:19;;;;;;;0.70;0.10;;;21.70;99.90;;;;;;5052461;28;20827;-70
2022/06/12 01:18:50;;;;;;;0.70;0.20;;;21.70;99.90;;;;;;5056834;28;21216;-70
2022/06/12 01:21:42;;;;;;;0.70;0.13;;;21.70;99.90;;;;;;5061988;28;20439;-73
2022/06/12 01:24:35;;;;;;;0.70;0.10;;;21.70;99.90;;;;;;5051309;28;20503;-66
2022/06/12 01:27:34;;;;;;;0.70;0.10;;;21.70;99.90;;;;;;5059509;28;21034;-67
2022/06/12 01:30:12;;;;;;;0.70;0.20;;;21.70;99.90;;;;;;5062253;28;21031;-67
2022/06/12 01:32:46;;;;;;;0.70;0.10;;;21.70;99.90;;;;;;5065591;28;20443;-68
2022/06/12 01:35:23;;;;;;;0.70;0.10;;;21.60;99.90;;;;;;5060241;28;20449;-66
2022/06/12 01:37:57;;;;;;;0.60;0.13;;;21.60;99.90;;;;;;5071389;28;20441;-71
2022/06/12 01:40:32;;;;;;;0.70;0.20;;;21.60;99.90;;;;;;5061514;28;20540;-72
2022/06/12 01:43:07;;;;;;;0.60;0.10;;;21.50;99.90;;;;;;5052189;28;20450;-70
2022/06/12 01:45:43;;;;;;;0.70;0.13;;;21.50;99.90;;;;;;5051798;28;20480;-71
2022/06/12 01:48:27;;;;;;;0.67;0.20;;;21.50;99.90;;;;;;5069198;28;20800;-72
2022/06/12 01:51:05;;;;;;;0.70;0.13;;;21.40;99.90;;;;;;5057560;28;20476;-70
2022/06/12 01:53:40;;;;;;;0.70;0.20;;;21.40;99.90;;;;;;5066125;28;20450;-71
2022/06/12 01:56:16;;;;;;;0.60;0.20;;;21.40;99.90;;;;;;5054895;28;20478;-70
2022/06/12 01:58:53;;;;;;;0.70;0.10;;;21.40;99.90;;;;;;5055183;28;20545;-72
2022/06/12 02:01:29;;;;;;;0.70;0.20;;;21.40;99.90;;;;;;5055196;28;20453;-71
2022/06/12 02:04:05;;;;;;;0.67;0.10;;;21.40;99.90;;;;;;5055728;28;20495;-70
2022/06/12 02:06:38;;;;;;;0.70;0.20;;;21.30;99.90;;;;;;5073697;28;20472;-71
2022/06/12 02:09:13;;;;;;;0.70;0.20;;;21.30;99.90;;;;;;5055737;28;20864;-71
2022/06/12 02:14:40;;;;;;;0.80;0.70;;;21.30;99.90;;;;;;5054535;28;20446;-71
2022/06/12 02:17:14;;;;;;;0.70;0.10;;;21.20;99.90;;;;;;5054565;28;20647;-71
2022/06/12 02:19:44;;;;;;;0.70;0.20;;;21.20;99.90;;;;;;5065788;28;20445;-71
2022/06/12 02:22:16;;;;;;;0.60;0.20;;;21.10;99.90;;;;;;5061548;28;20446;-70
2022/06/12 02:24:47;;;;;;;0.70;0.40;;;21.10;99.90;;;;;;5071019;28;20446;-68
2022/06/12 02:27:19;;;;;;;0.70;0.20;;;21.00;99.90;;;;;;5069175;28;20835;-67
2022/06/12 02:29:53;;;;;;;0.60;0.10;;;21.00;99.90;;;;;;5053139;28;20446;-69
2022/06/12 02:32:35;;;;;;;0.70;0.20;;;21.00;99.90;;;;;;5069185;28;20567;-68
2022/06/12 02:35:07;;;;;;;0.60;0.20;;;21.00;1.00;;;;;;5073667;28;20991;-71
2022/06/12 02:37:40;;;;;;;0.60;0.10;;;20.90;1.00;;;;;;5073674;28;20442;-68
2022/06/12 02:40:12;;;;;;;0.60;0.10;;;;;;;;;;5073960;28;20792;-69
2022/06/12 02:42:45;;;;;;;0.60;0.10;;;20.90;1.00;;;;;;5056489;28;20877;-69
2022/06/12 02:45:18;;;;;;;0.70;0.20;;;20.80;1.00;;;;;;5054092;28;20952;-68
2022/06/12 02:47:49;;;;;;;0.60;0.20;;;20.80;1.00;;;;;;5073895;28;20460;-69
2022/06/12 02:50:21;;;;;;;0.60;0.10;;;20.80;1.00;;;;;;5062946;28;20454;-67
2022/06/12 02:53:03;;;;;;;0.60;0.10;;;20.80;1.00;;;;;;5055031;28;20443;-71
2022/06/12 02:55:38;;;;;;;0.70;0.20;;;20.70;1.00;;;;;;5053749;28;20478;-72
2022/06/12 02:58:12;;;;;;;0.70;0.10;;;20.70;1.00;;;;;;5053325;28;20521;-71
2022/06/12 03:00:47;;;;;;;0.63;0.10;;;20.70;1.00;;;;;;5055194;28;20454;-69
2022/06/12 03:03:24;;;;;;;0.60;0.10;;;20.70;1.00;;;;;;5054067;28;20544;-68
2022/06/12 03:05:57;;;;;;;0.60;0.10;;;20.60;1.00;;;;;;5056874;28;20473;-69
2022/06/12 03:08:28;;;;;;;0.60;0.10;;;;;;;;;;5072993;28;20786;-70
2022/06/12 03:10:58;;;;;;;0.60;0.20;;;20.60;1.00;;;;;;5072933;28;20473;-70
2022/06/12 03:13:28;;;;;;;0.60;0.10;;;20.60;1.00;;;;;;5058051;28;20453;-69
2022/06/12 03:15:58;;;;;;;0.60;0.10;;;20.60;1.00;;;;;;5073167;28;20472;-69
2022/06/12 03:18:30;;;;;;;0.60;0.20;;;20.50;1.00;;;;;;5073176;28;20927;-70
2022/06/12 03:21:08;;;;;;;0.60;0.10;;;20.50;1.00;;;;;;5056653;28;20476;-71
2022/06/12 03:24:00;;;;;;;0.60;0.10;;;20.50;1.00;;;;;;5053489;28;20455;-69
2022/06/12 03:26:42;;;;;;;0.60;0.20;;;20.50;1.00;;;;;;5054628;28;20470;-70
2022/06/12 03:29:21;;;;;;;0.60;0.13;;;20.50;1.00;;;;;;5073219;28;20605;-69
2022/06/12 03:32:08;;;;;;;0.60;0.13;;;20.50;1.00;;;;;;5066135;28;20478;-71
2022/06/12 03:34:44;;;;;;;0.60;0.10;;;20.40;1.00;;;;;;5057404;28;20450;-69
2022/06/12 03:37:22;;;;;;;0.60;0.10;;;20.50;1.00;;;;;;5053109;28;20548;-70
2022/06/12 03:40:00;;;;;;;0.60;0.10;;;20.40;1.00;;;;;;5053563;28;20548;-70
2022/06/12 03:42:34;;;;;;;0.60;0.10;;;20.40;1.00;;;;;;5068600;28;20449;-70
2022/06/12 03:45:08;;;;;;;0.60;0.10;;;20.40;1.00;;;;;;5052502;28;20985;-72
2022/06/12 03:47:40;;;;;;;0.60;0.10;;;20.40;1.00;;;;;;5052536;28;20822;-70
2022/06/12 03:50:17;;;;;;;0.60;0.20;;;20.40;1.00;;;;;;5053024;28;20446;-71
2022/06/12 03:52:54;;;;;;;0.60;0.10;;;20.40;1.00;;;;;;5052605;28;20474;-70
2022/06/12 03:58:17;;;;;;;0.60;0.10;;;20.50;1.00;;;;;;5068897;28;20536;-70
2022/06/12 04:00:48;;;;;;;0.60;0.10;;;20.50;1.00;;;;;;5072629;28;20492;-69
2022/06/12 04:03:22;;;;;;;0.60;0.20;;;20.50;1.00;;;;;;5064349;28;20524;-70
2022/06/12 04:05:55;;;;;;;0.60;0.10;;;20.50;1.00;;;;;;5052670;28;20466;-71
2022/06/12 04:08:33;;;;;;;0.63;0.27;;;20.50;1.00;;;;;;5053050;28;20443;-71
2022/06/12 04:11:01;;;;;;;0.60;0.10;;;20.50;1.00;;;;;;5072149;28;20449;-69
2022/06/12 04:13:30;;;;;;;0.60;0.10;;;20.50;1.00;;;;;;5071863;28;21374;-70
2022/06/12 04:16:01;;;;;;;0.60;0.20;;;20.60;1.00;;;;;;5065982;28;20470;-69
2022/06/12 04:18:32;;;;;;;0.60;0.10;;;20.60;1.00;;;;;;5052594;28;20540;-70
2022/06/12 04:21:07;;;;;;;0.60;0.13;;;20.60;1.00;;;;;;5072062;28;20449;-69
2022/06/12 04:23:44;;;;;;;0.60;0.10;;;20.70;1.00;;;;;;5060664;28;20545;-69
2022/06/12 04:26:21;;;;;;;0.60;0.10;;;20.70;1.00;;;;;;5061762;28;20576;-71
2022/06/12 04:28:56;;;;;;;0.60;0.20;;;20.70;1.00;;;;;;5066418;28;20446;-69
2022/06/12 04:31:24;;;;;;;0.60;0.20;;;20.70;1.00;;;;;;5071701;28;21046;-69
2022/06/12 04:34:13;;;;;;;0.60;0.10;;;20.80;1.00;;;;;;5070540;28;20453;-70
2022/06/12 04:36:45;;;;;;;0.60;0.20;;;20.80;1.00;;;;;;5068107;28;20466;-71
2022/06/12 04:39:14;;;;;;;0.60;0.10;;;20.80;1.00;;;;;;5071536;28;20536;-71
2022/06/12 04:41:43;;;;;;;0.60;0.10;;;20.80;1.00;;;;;;5052425;28;20454;-71
2022/06/12 04:44:12;;;;;;;0.77;0.73;;;20.80;1.00;;;;;;5052059;28;20446;-69
2022/06/12 04:46:43;;;;;;;0.60;0.10;;;20.80;1.00;;;;;;5051731;28;20476;-70
2022/06/12 04:49:16;;;;;;;0.60;0.10;;;20.90;1.00;;;;;;5061791;28;20814;-71
2022/06/12 04:51:46;;;;;;;0.60;0.10;;;20.90;1.00;;;;;;5071986;28;20519;-71
2022/06/12 04:54:14;;;;;;;0.60;0.10;;;20.90;1.00;;;;;;5071747;28;20442;-71
2022/06/12 04:56:43;;;;;;;0.60;0.10;;;20.90;1.00;;;;;;5071365;28;20982;-70
2022/06/12 04:59:14;;;;;;;0.60;0.20;;;20.90;1.00;;;;;;5070528;28;20453;-69
2022/06/12 05:01:43;;;;;;;0.60;0.10;;;21.00;1.00;;;;;;5071998;28;20548;-71
2022/06/12 05:04:11;;;;;;;0.60;0.20;;;20.90;1.00;;;;;;5072182;28;20532;-72
2022/06/12 05:06:41;;;;;;;0.60;0.10;;;21.00;1.00;;;;;;5063372;28;20481;-69
2022/06/12 05:09:12;;;;;;;0.60;0.10;;;21.00;1.00;;;;;;5053029;28;20937;-71
2022/06/12 05:11:41;;;;;;;0.60;0.10;;;21.00;1.00;;;;;;5052323;28;20439;-71
2022/06/12 05:14:09;;;;;;;0.60;0.10;;;21.00;1.00;;;;;;5059888;28;20456;-69
2022/06/12 05:16:40;;;;;;;0.60;0.10;;;21.00;1.00;;;;;;5063816;28;20497;-70
2022/06/12 05:19:19;;;;;;;0.60;0.10;;;21.00;1.00;;;;;;5060139;28;20462;-68
2022/06/12 05:21:47;;;;;;;0.70;0.20;;;21.00;1.00;;;;;;5067293;28;20448;-68
2022/06/12 05:24:17;;;;;;;0.60;0.17;;;21.10;1.00;;;;;;5064961;28;20461;-67
2022/06/12 05:26:48;;;;;;;0.60;0.20;;;21.20;1.00;;;;;;5054847;28;20466;-70
2022/06/12 05:29:21;;;;;;;0.60;0.20;;;21.20;1.00;;;;;;5054403;28;20454;-69
2022/06/12 05:31:49;;;;;;;0.60;0.10;;;21.30;1.00;;;;;;5065728;28;20450;-71
2022/06/12 05:34:17;;;;;;;0.60;0.10;;;21.30;1.00;;;;;;5063177;28;20441;-70
2022/06/12 05:36:47;;;;;;;0.60;0.10;;;21.50;1.00;;;;;;5068045;28;20462;-71
2022/06/12 05:39:16;;;;;;;0.60;0.10;;;21.60;99.90;;;;;;5055264;28;20457;-71
2022/06/12 05:41:44;;;;;;;0.60;0.10;;;21.70;99.90;;;;;;5056563;28;20453;-72
2022/06/12 05:44:12;;;;;;;0.60;0.10;;;21.80;99.90;;;;;;5064675;28;20501;-69
2022/06/12 05:46:41;;;;;;;0.70;0.20;;;21.90;99.90;;;;;;5054699;28;20864;-70
2022/06/12 05:49:09;;;;;;;0.70;0.10;;;22.00;99.90;;;;;;5055208;28;20891;-70
2022/06/12 05:51:38;;;;;;;0.70;0.10;;;;;;;;;;5067771;28;20451;-68
2022/06/12 05:54:10;;;;;;;0.70;0.10;;;22.00;99.90;;;;;;5054866;28;20474;-70
2022/06/12 05:56:40;;;;;;;0.70;0.20;;;22.10;99.90;;;;;;5055490;28;20478;-69
2022/06/12 05:59:08;;;;;;;0.70;0.10;;;22.10;99.90;;;;;;5055249;28;20478;-69
2022/06/12 06:01:38;;;;;;;0.70;0.10;;;22.20;99.90;;;;;;5057447;28;20458;-70
2022/06/12 06:04:07;;;;;;;0.70;0.17;;;22.20;99.90;;;;;;5056833;28;20446;-70
2022/06/12 06:06:43;;;;;;;0.70;0.10;;;22.30;99.90;;;;;;5055279;28;20459;-71
2022/06/12 06:09:11;;;;;;;0.70;0.10;;;22.40;99.90;;;;;;5062840;28;20453;-71
2022/06/12 06:11:41;;;;;;;0.70;0.10;;;22.40;99.90;;;;;;5069892;28;20442;-71
2022/06/12 06:14:09;;;;;;;0.70;0.10;;;22.50;99.90;;;;;;5069574;28;20481;-69
2022/06/12 06:16:39;;;;;;;0.70;0.20;;;;;;;;;;5054343;28;20544;-70
2022/06/12 06:19:07;;;;;;;0.70;0.13;;;22.60;99.90;;;;;;5064642;28;20544;-70
2022/06/12 06:21:36;;;;;;;0.70;0.20;;;22.60;99.90;;;;;;5063628;28;20550;-69
2022/06/12 06:24:05;;;;;;;0.70;0.10;;;22.60;99.90;;;;;;5054831;28;20446;-68
2022/06/12 06:26:32;;;;;;;0.70;0.13;;;22.50;99.90;;;;;;5071204;28;20465;-67
2022/06/12 06:29:02;;;;;;;0.70;0.10;;;22.50;99.90;;;;;;5055500;28;20533;-67
2022/06/12 06:31:30;;;;;;;0.70;0.20;;;22.60;99.90;;;;;;5054920;28;20457;-69
2022/06/12 06:33:58;;;;;;;0.70;0.20;;;22.70;99.90;;;;;;5054843;28;20524;-69
2022/06/12 06:36:26;;;;;;;0.70;0.20;;;22.70;99.90;;;;;;5065515;28;20492;-71
2022/06/12 06:38:56;;;;;;;0.70;0.10;;;22.70;99.90;;;;;;5074199;28;20450;-68
2022/06/12 06:41:25;;;;;;;0.70;0.13;;;22.80;99.90;;;;;;5056316;28;20450;-71
2022/06/12 06:46:41;;;;;;;0.70;0.10;;;23.00;99.90;;;;;;5062590;28;20558;-70
2022/06/12 06:49:09;;;;;;;0.70;0.20;;;23.10;99.90;;;;;;5054385;28;20447;-70
2022/06/12 06:51:37;;;;;;;0.70;0.10;;;23.10;99.90;;;;;;5054292;28;20877;-71
2022/06/12 06:54:05;;;;;;;0.70;0.20;;;23.10;99.90;;;;;;5054972;28;20482;-71
2022/06/12 06:56:33;;;;;;;0.70;0.10;;;23.20;99.90;;;;;;5054231;28;20478;-71
2022/06/12 06:59:01;;;;;;;0.70;0.10;;;23.20;99.90;;;;;;5056613;28;20974;-71
2022/06/12 07:01:29;;;;;;;0.70;0.10;;;23.20;99.90;;;;;;5055832;28;20955;-75
2022/06/12 07:03:58;;;;;;;0.70;0.20;;;23.20;99.90;;;;;;5056472;28;20825;-72
2022/06/12 07:06:26;;;;;;;0.70;0.10;;;23.30;99.90;;;;;;5053795;28;20505;-74
2022/06/12 07:08:55;;;;;;;0.70;0.17;;;23.30;99.90;;;;;;5054339;28;20451;-72
2022/06/12 07:11:24;;;;;;;0.70;0.20;;;23.40;99.90;;;;;;5055069;28;20450;-71
2022/06/12 07:13:53;;;;;;;0.70;0.17;;;23.40;99.90;;;;;;5077573;28;20484;-74
2022/06/12 07:16:22;;;;;;;0.70;0.20;;;23.50;99.90;;;;;;5058168;28;20477;-72
2022/06/12 07:18:51;;;;;;;0.70;0.10;;;23.50;99.90;;;;;;5059989;28;20449;-73
2022/06/12 07:21:21;;;;;;;0.70;0.20;;;23.50;99.90;;;;;;5074270;28;20448;-74
2022/06/12 07:23:49;;;;;;;0.70;0.20;;;23.40;99.90;;;;;;5073839;28;20448;-73
2022/06/12 07:26:19;;;;;;;0.70;0.10;;;23.50;99.90;;;;;;5072346;28;20701;-73
2022/06/12 07:28:49;;;;;;;0.70;0.10;;;23.50;99.90;;;;;;5055031;28;20451;-73
2022/06/12 07:31:19;;;;;;;0.70;0.20;;;23.50;99.90;;;;;;5065951;28;20474;-73
2022/06/12 07:33:47;;;;;;;0.70;0.20;;;23.60;99.90;;;;;;5071474;28;20488;-74
2022/06/12 07:36:16;;;;;;;0.70;0.10;;;23.70;99.90;;;;;;5068676;28;20466;-73
2022/06/12 07:38:48;;;;;;;0.70;0.10;;;23.70;99.90;;;;;;5072500;28;20456;-73
2022/06/12 07:41:36;;;;;;;0.70;0.20;;;23.90;99.90;;;;;;5056874;28;20434;-71
2022/06/12 07:44:05;;;;;;;0.70;0.10;;;23.90;99.90;;;;;;5065677;28;20446;-73
2022/06/12 07:46:34;;;;;;;0.70;0.10;;;23.90;99.90;;;;;;5056371;28;20498;-72
2022/06/12 07:49:02;;;;;;;0.70;0.10;;;24.00;99.90;;;;;;5073832;28;20540;-72
2022/06/12 07:51:30;;;;;;;0.80;0.60;;;24.00;99.90;;;;;;5073784;28;20456;-72
2022/06/12 07:53:59;;;;;;;0.70;0.10;;;24.10;99.90;;;;;;5064137;28;20497;-72
2022/06/12 07:56:28;;;;;;;0.70;0.10;;;24.10;99.90;;;;;;5054225;28;20484;-71
2022/06/12 07:58:56;;;;;;;0.70;0.10;;;24.10;99.90;;;;;;5064270;28;20442;-73
2022/06/12 08:01:26;;;;;;;0.70;0.10;;;24.10;99.90;;;;;;5070076;28;20960;-72
2022/06/12 08:03:55;;;;;;;0.70;0.10;;;24.10;99.90;;;;;;5061383;28;20832;-72
2022/06/12 08:06:24;;;;;;;0.70;0.10;;;24.10;99.90;;;;;;5060111;28;20461;-72
2022/06/12 08:08:53;;;;;;;0.70;0.20;;;24.20;99.90;;;;;;5065210;28;20828;-72
2022/06/12 08:11:27;;;;;;;0.70;0.10;;;24.20;99.90;;;;;;5063217;28;20815;-72
2022/06/12 08:13:55;;;;;;;1.53;1.30;;;24.20;99.90;;;;;;5059407;28;20478;-72
2022/06/12 08:16:23;;;;;;;0.70;0.20;;;24.30;99.90;;;;;;5057799;28;20462;-73
2022/06/12 08:18:51;;;;;;;0.70;0.10;;;24.30;99.90;;;;;;5056009;28;20480;-73
2022/06/12 08:21:20;;;;;;;0.70;0.10;;;;;;;;;;5070540;28;20458;-72
2022/06/12 08:23:51;;;;;;;0.70;0.10;;;24.40;99.90;;;;;;5072156;28;20934;-72
2022/06/12 08:26:22;;;;;;;0.70;0.10;;;24.50;99.90;;;;;;5071944;28;20565;-71
2022/06/12 08:28:55;;;;;;;0.70;0.10;;;24.60;99.90;;;;;;5068723;28;20464;-74
2022/06/12 08:31:27;;;;;;;0.70;0.10;;;24.60;99.90;;;;;;5067668;28;20463;-73
2022/06/12 08:34:01;;;;;;;0.70;0.10;;;24.60;99.90;;;;;;5060447;28;20474;-72
2022/06/12 08:36:31;;;;;;;0.70;0.10;;;24.70;99.90;;;;;;5064727;28;20849;-73
2022/06/12 08:38:59;;;;;;;0.70;0.20;;;24.70;99.90;;;;;;5063884;28;20441;-72
2022/06/12 08:41:40;;;;;;;0.90;0.50;;;24.70;99.90;;;;;;5073067;28;20457;-71
2022/06/12 08:44:17;;;;;;;0.70;0.20;;;24.70;99.90;;;;;;5066522;28;20450;-73
2022/06/12 08:46:51;;;;;;;0.70;0.10;;;24.70;99.90;;;;;;5059007;28;21036;-73
2022/06/12 08:49:25;;;;;;;0.70;0.10;;;24.70;99.90;;;;;;5055111;28;20434;-72
2022/06/12 08:51:58;;;;;;;0.70;0.13;;;24.70;99.90;;;;;;5056338;28;20434;-72
2022/06/12 08:54:35;;;;;;;0.70;0.10;;;24.70;99.90;;;;;;5056365;28;20477;-71
2022/06/12 08:57:09;;;;;;;0.70;0.10;;;24.80;99.90;;;;;;5073562;28;21341;-72
2022/06/12 08:59:44;;;;;;;0.90;0.30;;;24.80;99.90;;;;;;5053916;28;20451;-73
2022/06/12 09:02:21;;;;;;;0.70;0.20;;;24.90;99.90;;;;;;5062646;28;20456;-72
2022/06/12 09:04:49;;;;;;;0.80;0.33;;;24.90;99.90;;;;;;5052106;28;20442;-72
2022/06/12 09:07:23;;;;;;;0.70;0.10;;;24.90;99.90;;;;;;5051509;28;20470;-72
2022/06/12 09:09:54;;;;;;;0.87;0.50;;;24.80;99.90;;;;;;5051853;28;20451;-73
2022/06/12 09:12:27;;;;;;;0.70;0.10;;;24.90;99.90;;;;;;5063169;28;20472;-71
2022/06/12 09:15:10;;;;;;;0.70;0.20;;;25.10;99.90;;;;;;5051527;28;20482;-71
2022/06/12 09:17:48;;;;;;;0.70;0.13;;;25.10;99.90;;;;;;5059492;28;20987;-73
2022/06/12 09:20:24;;;;;;;0.70;0.30;;;25.20;99.90;;;;;;5058965;28;20457;-73
2022/06/12 09:23:01;;;;;;;0.70;0.10;;;25.20;99.90;;;;;;5071911;28;20453;-73
2022/06/12 09:25:38;;;;;;;1.53;1.37;;;25.30;99.90;;;;;;5065776;28;21070;-73
2022/06/12 09:28:14;;;;;;;0.70;0.20;;;25.20;99.90;;;;;;5051877;28;20556;-73
2022/06/12 09:30:49;;;;;;;0.70;0.20;;;25.20;99.90;;;;;;5052849;28;20525;-72
2022/06/12 09:33:28;;;;;;;0.70;0.10;;;25.40;99.90;;;;;;5059576;28;20453;-72
2022/06/12 09:36:08;;;;;;;0.70;0.20;;;25.60;99.90;;;;;;5065081;28;20509;-72
2022/06/12 09:38:48;;;;;;;0.70;0.10;;;25.60;99.90;;;;;;5056939;28;20446;-72
2022/06/12 09:41:22;;;;;;;0.70;0.10;;;25.80;99.90;;;;;;5051781;28;20991;-73
2022/06/12 09:44:02;;;;;;;0.70;0.20;;;25.90;99.90;;;;;;5063063;28;20453;-72
2022/06/12 09:46:51;;;;;;;0.70;0.20;;;26.10;99.90;;;;;;5066771;28;20462;-72
2022/06/12 09:49:32;;;;;;;0.70;0.20;;;26.20;99.90;;;;;;5065583;28;20556;-73
2022/06/12 09:52:33;;;;;;;0.70;0.20;;;26.20;99.90;;;;;;5056949;28;20940;-71
2022/06/12 09:55:06;;;;;;;0.70;0.10;;;26.20;99.90;;;;;;5051374;28;20569;-73
2022/06/12 09:57:41;;;;;;;0.90;0.50;;;26.30;99.90;;;;;;5050807;28;20521;-72
2022/06/12 10:00:16;;;;;;;0.70;0.17;;;26.30;99.90;;;;;;5057081;28;20884;-74
2022/06/12 10:02:56;;;;;;;0.70;0.20;;;26.20;99.90;;;;;;5071555;28;20444;-75
2022/06/12 10:05:28;;;;;;;0.70;0.10;;;26.30;99.90;;;;;;5070437;28;20465;-74
2022/06/12 10:08:04;;;;;;;0.70;0.10;;;26.30;99.90;;;;;;5056258;28;20451;-73
2022/06/12 10:10:39;;;;;;;0.80;0.47;;;26.40;99.90;;;;;;5069924;28;20445;-75
2022/06/12 10:13:10;;;;;;;0.70;0.10;;;26.20;99.90;;;;;;5071457;28;20436;-76
2022/06/12 10:15:41;;;;;;;0.70;0.10;;;26.30;99.90;;;;;;5071900;28;20485;-75
2022/06/12 10:18:15;;;;;;;0.70;0.20;;;26.30;99.90;;;;;;5065918;28;20460;-74
2022/06/12 10:20:47;;;;;;;3.93;1.67;;;26.40;99.90;;;;;;5070981;28;20830;-74
2022/06/12 10:23:16;;;;;;;0.80;0.20;;;26.30;99.90;;;;;;5069183;28;20460;-75
2022/06/12 10:25:48;;;;;;;0.70;0.10;;;26.20;99.90;;;;;;5063432;28;20458;-73
2022/06/12 10:28:31;;;;;;;0.70;0.20;;;26.30;99.90;;;;;;5061527;28;21357;-75
2022/06/12 10:31:06;;;;;;;0.70;0.20;;;26.30;99.90;;;;;;5057965;28;20765;-73
2022/06/12 10:33:50;;;;;;;0.70;0.10;;;26.30;99.90;;;;;;5054579;28;20441;-75
2022/06/12 10:36:22;;;;;;;0.70;0.10;;;26.60;99.90;;;;;;5066627;28;20476;-74
2022/06/12 10:38:50;;;;;;;4.00;0.93;;;26.60;99.90;;;;;;5056777;28;20530;-73
2022/06/12 10:41:23;;;;;;;1.10;0.30;;;26.30;99.90;;;;;;5054986;28;20558;-74
2022/06/12 10:43:52;;;;;;;0.70;0.10;;;26.30;99.90;;;;;;5054841;28;20917;-75
2022/06/12 10:46:24;;;;;;;0.70;0.20;;;26.20;99.90;;;;;;5053784;28;20546;-76
2022/06/12 10:49:04;;;;;;;0.70;0.10;;;26.30;99.90;;;;;;5061603;28;21019;-76
2022/06/12 10:51:36;;;;;;;0.70;0.10;;;26.30;99.90;;;;;;5074270;28;20465;-75
2022/06/12 10:54:13;;;;;;;0.70;0.10;;;26.40;99.90;;;;;;5075403;28;20775;-74
2022/06/12 10:56:54;;;;;;;0.90;0.53;;;26.50;99.90;;;;;;5071455;28;20882;-74
2022/06/12 10:59:34;;;;;;;1.73;1.50;;;26.50;99.90;;;;;;5063065;28;20442;-76
2022/06/12 11:02:42;;;;;;;1.63;1.53;;;26.60;99.90;;;;;;5070061;28;20476;-77
2022/06/12 11:05:33;;;;;;;0.70;0.20;;;26.50;99.90;;;;;;5053467;28;20486;-75
2022/06/12 11:08:10;;;;;;;0.70;0.10;;;26.50;99.90;;;;;;5053154;28;20451;-76
2022/06/12 11:10:51;;;;;;;0.70;0.30;;;26.70;99.90;;;;;;5054071;28;20446;-74
2022/06/12 11:13:31;;;;;;;0.70;0.10;;;26.90;99.90;;;;;;5063759;28;20450;-75
2022/06/12 11:16:22;;;;;;;0.70;0.10;;;26.90;99.90;;;;;;5063239;28;20973;-73
2022/06/12 11:19:05;;;;;;;1.70;0.80;;;26.80;99.90;;;;;;5061861;28;20907;-73
2022/06/12 11:21:45;;;;;;;0.80;0.57;;;26.80;99.90;;;;;;5064607;28;20446;-75
2022/06/12 11:24:17;;;;;;;5.67;0.60;;;26.20;99.90;;;;;;5069233;28;20452;-75
2022/06/12 11:27:03;;;;;;;0.70;0.20;;;26.20;99.90;;;;;;5064802;28;20468;-75
2022/06/12 11:29:52;;;;;;;0.90;0.73;;;26.20;99.90;;;;;;5053808;28;20461;-76
2022/06/12 11:32:33;;;;;;;0.90;0.47;;;26.60;99.90;;;;;;5066303;28;20948;-74
2022/06/12 11:35:15;;;;;;;0.70;0.20;;;26.70;99.90;;;;;;5073656;28;20784;-75
2022/06/12 11:38:00;;;;;;;0.80;0.60;;;26.80;99.90;;;;;;5076649;28;20449;-75
2022/06/12 11:40:36;;;;;;;0.70;0.20;;;27.00;99.90;;;;;;5076478;28;20533;-75
2022/06/12 11:43:15;;;;;;;0.70;0.10;;;27.10;99.90;;;;;;5073573;28;20459;-75
2022/06/12 11:46:05;;;;;;;2.80;2.60;;;27.30;99.90;;;;;;5053221;28;20528;-74
2022/06/12 11:49:05;;;;;;;0.70;0.20;;;27.30;99.90;;;;;;5059092;28;20468;-76
2022/06/12 11:51:43;;;;;;;0.70;0.10;;;27.20;99.90;;;;;;5059650;28;20451;-76
2022/06/12 11:54:29;;;;;;;0.70;0.10;;;27.20;99.90;;;;;;5061146;28;20446;-76
2022/06/12 11:57:05;;;;;;;0.70;0.30;;;27.20;99.90;;;;;;5052564;28;21047;-74
2022/06/12 11:59:46;;;;;;;2.07;0.50;;;26.90;99.90;;;;;;5072563;28;20441;-73
2022/06/12 12:02:23;;;;;;;0.70;0.10;;;26.80;99.90;;;;;;5073400;28;20441;-74
2022/06/12 12:05:12;;;;;;;0.70;0.10;;;26.90;99.90;;;;;;5073060;28;20552;-75
2022/06/12 12:07:53;;;;;;;0.70;0.20;;;27.00;99.90;;;;;;5072234;28;20456;-74
2022/06/12 12:10:47;;;;;;;0.70;0.20;;;27.10;99.90;;;;;;5063927;28;20461;-77
2022/06/12 12:13:18;;;;;;;0.70;0.13;;;27.20;99.90;;;;;;5056998;28;20478;-76
2022/06/12 12:15:50;;;;;;;0.70;0.30;;;27.30;99.90;;;;;;5052960;28;20488;-74
2022/06/12 12:18:32;;;;;;;0.70;0.20;;;27.20;99.90;;;;;;5059932;28;20953;-75
2022/06/12 12:21:03;;;;;;;0.70;0.13;;;27.20;99.90;;;;;;5061784;28;20481;-74
2022/06/12 12:23:37;;;;;;;1.00;0.30;;;27.30;99.90;;;;;;5072708;28;20571;-76
2022/06/12 12:26:12;;;;;;;1.37;0.50;;;27.20;99.90;;;;;;5060043;28;20465;-73
2022/06/12 12:28:46;;;;;;;0.70;0.10;;;27.40;99.90;;;;;;5061562;28;20959;-76
2022/06/12 12:31:17;;;;;;;0.70;0.20;;;27.40;99.90;;;;;;5062016;28;20450;-76
2022/06/12 12:33:48;;;;;;;0.70;0.20;;;27.60;99.90;;;;;;5063393;28;20462;-77
2022/06/12 12:42:01;;;;;;;0.70;0.10;;;27.70;99.90;;;;;;5076478;28;20453;-76
2022/06/12 12:44:32;;;;;;;0.80;0.30;;;27.80;99.90;;;;;;5073909;28;20461;-75
2022/06/12 12:47:01;;;;;;;0.70;0.10;;;27.90;99.90;;;;;;5061321;28;20979;-74
2022/06/12 12:49:33;;;;;;;0.90;0.40;;;28.10;99.90;;;;;;5056166;28;20504;-75
2022/06/12 12:52:07;;;;;;;1.00;0.60;;;28.20;99.90;;;;;;5059272;28;20512;-75
2022/06/12 12:54:48;;;;;;;0.70;0.10;;;28.30;99.90;;;;;;5057732;28;20457;-77
2022/06/12 12:57:19;;;;;;;0.70;0.10;;;28.40;99.90;;;;;;5064450;28;21029;-77
2022/06/12 12:59:50;;;;;;;0.70;0.10;;;28.50;99.90;;;;;;5065887;28;20441;-73
2022/06/12 13:02:25;;;;;;;1.10;0.67;;;28.40;99.90;;;;;;5055231;28;20443;-77
2022/06/12 13:04:56;;;;;;;0.70;0.10;;;28.30;99.90;;;;;;5051755;28;20446;-76
2022/06/12 13:07:48;;;;;;;0.70;0.10;;;28.40;99.90;;;;;;5072098;28;20476;-77
2022/06/12 13:10:33;;;;;;;0.70;0.20;;;28.40;99.90;;;;;;5069836;28;20461;-77
2022/06/12 13:13:24;;;;;;;0.70;0.10;;;28.50;99.90;;;;;;5055432;28;20461;-77
2022/06/12 13:15:58;;;;;;;0.70;0.20;;;28.60;99.90;;;;;;5053029;28;20471;-76
2022/06/12 13:18:46;;;;;;;0.70;0.30;;;28.70;99.90;;;;;;5055472;28;20426;-76
2022/06/12 13:21:21;;;;;;;0.70;0.20;;;28.70;99.90;;;;;;5074867;28;20536;-75
2022/06/12 13:24:03;;;;;;;0.70;0.20;;;28.70;99.90;;;;;;5073059;28;20453;-76
2022/06/12 13:26:34;;;;;;;0.70;0.10;;;28.70;99.90;;;;;;5073039;28;20465;-76
2022/06/12 13:29:06;;;;;;;0.70;0.10;;;28.80;99.90;;;;;;5071469;28;20449;-76
2022/06/12 13:31:34;;;;;;;0.70;0.20;;;28.90;99.90;;;;;;5074572;28;20458;-75
2022/06/12 13:34:05;;;;;;;0.80;0.40;;;28.90;99.90;;;;;;5054523;28;20996;-75
2022/06/12 13:36:38;;;;;;;1.10;0.70;;;28.50;99.90;;;;;;5057877;28;20478;-75
2022/06/12 13:39:18;;;;;;;0.80;0.37;;;28.40;99.90;;;;;;5071797;28;20443;-78
2022/06/12 13:41:51;;;;;;;0.70;0.20;;;28.30;99.90;;;;;;5052747;28;20798;-76